createdAt,value
2018-06-20T00:02:04.985Z,4.40
2018-06-20T00:04:32.232Z,7.33
2018-06-20T00:06:59.476Z,7.00
2018-06-20T00:09:26.684Z,6.23
2018-06-20T00:11:53.893Z,3.80
2018-06-20T00:14:21.111Z,4.07
2018-06-20T00:16:48.369Z,4.00
2018-06-20T00:19:15.594Z,5.50
2018-06-20T00:21:42.830Z,6.30
2018-06-20T00:24:10.040Z,6.80
2018-06-20T00:26:37.280Z,4.30
2018-06-20T00:29:04.525Z,4.20
2018-06-20T00:31:31.761Z,6.23
2018-06-20T00:33:58.993Z,6.40
2018-06-20T00:36:26.242Z,5.20
2018-06-20T00:38:53.466Z,5.33
2018-06-20T00:41:20.712Z,4.30
2018-06-20T00:43:47.937Z,4.50
2018-06-20T00:46:15.166Z,3.97
2018-06-20T00:48:42.384Z,5.50
2018-06-20T00:51:09.617Z,5.67
2018-06-20T00:53:36.836Z,4.13
2018-06-20T00:56:15.533Z,4.30
2018-06-20T00:58:42.780Z,9.10
2018-06-20T01:01:10.000Z,4.33
2018-06-20T01:03:37.225Z,5.80
2018-06-20T01:06:04.465Z,4.43
2018-06-20T01:08:31.688Z,4.67
2018-06-20T01:10:58.893Z,7.30
2018-06-20T01:13:37.362Z,4.23
2018-06-20T01:16:04.837Z,4.80
2018-06-20T01:18:32.300Z,5.00
2018-06-20T01:20:59.664Z,7.03
2018-06-20T01:23:26.917Z,5.90
2018-06-20T01:25:54.159Z,6.90
2018-06-20T01:28:21.640Z,5.30
2018-06-20T01:30:50.265Z,5.30
2018-06-20T01:33:17.623Z,4.73
2018-06-20T01:35:44.852Z,5.40
2018-06-20T01:38:12.153Z,8.10
2018-06-20T01:40:39.632Z,5.23
2018-06-20T01:43:07.316Z,4.93
2018-06-20T01:45:34.760Z,10.37
2018-06-20T01:48:01.981Z,5.90
2018-06-20T01:50:29.914Z,7.63
2018-06-20T01:52:57.584Z,4.60
2018-06-20T01:55:25.050Z,4.83
2018-06-20T01:57:54.164Z,8.10
2018-06-20T02:00:22.448Z,7.03
2018-06-20T02:02:49.697Z,9.37
2018-06-20T02:05:16.928Z,5.60
2018-06-20T02:07:44.156Z,9.37
2018-06-20T02:10:11.396Z,6.83
2018-06-20T02:12:38.693Z,5.83
2018-06-20T02:15:05.933Z,8.20
2018-06-20T02:17:33.169Z,4.93
2018-06-20T02:20:00.578Z,7.50
2018-06-20T02:22:27.812Z,6.90
2018-06-20T02:24:55.032Z,7.73
2018-06-20T02:27:22.253Z,6.80
2018-06-20T02:29:49.526Z,8.00
2018-06-20T02:32:16.732Z,7.03
2018-06-20T02:34:44.323Z,7.27
2018-06-20T02:37:11.558Z,4.17
2018-06-20T02:39:38.785Z,4.93
2018-06-20T02:42:06.030Z,7.63
2018-06-20T02:44:33.249Z,5.57
2018-06-20T02:47:00.465Z,7.07
2018-06-20T02:49:27.717Z,5.23
2018-06-20T02:51:54.942Z,5.83
2018-06-20T02:54:22.156Z,9.03
2018-06-20T02:56:49.377Z,6.33
2018-06-20T02:59:16.592Z,4.10
2018-06-20T03:01:43.811Z,5.40
2018-06-20T03:04:11.051Z,11.80
2018-06-20T03:06:38.368Z,4.40
2018-06-20T03:09:13.503Z,4.80
2018-06-20T03:11:41.853Z,4.47
2018-06-20T03:14:09.090Z,7.37
2018-06-20T03:16:37.853Z,4.70
2018-06-20T03:19:07.146Z,7.20
2018-06-20T03:21:34.491Z,5.27
2018-06-20T03:24:01.738Z,10.40
2018-06-20T03:26:28.980Z,9.03
2018-06-20T03:28:56.248Z,5.67
2018-06-20T03:31:23.477Z,5.97
2018-06-20T03:33:50.688Z,5.80
2018-06-20T03:36:17.923Z,5.70
2018-06-20T03:38:45.162Z,10.50
2018-06-20T03:41:12.377Z,4.90
2018-06-20T03:43:39.598Z,10.80
2018-06-20T03:46:07.810Z,5.53
2018-06-20T03:48:37.268Z,12.00
2018-06-20T03:51:04.654Z,4.93
2018-06-20T03:53:31.896Z,7.13
2018-06-20T03:56:08.120Z,5.23
2018-06-20T03:58:35.345Z,9.60
2018-06-20T04:01:02.589Z,10.77
2018-06-20T04:03:29.978Z,18.63
2018-06-20T04:05:57.197Z,11.37
2018-06-20T04:08:24.718Z,7.60
2018-06-20T04:10:51.950Z,4.90
2018-06-20T04:13:19.188Z,10.63
2018-06-20T04:15:46.440Z,7.57
2018-06-20T04:18:13.670Z,4.07
2018-06-20T04:20:40.896Z,4.80
2018-06-20T04:23:08.371Z,5.47
2018-06-20T04:25:35.613Z,5.70
2018-06-20T04:28:02.862Z,5.03
2018-06-20T04:30:30.186Z,6.80
2018-06-20T04:32:57.560Z,6.93
2018-06-20T04:35:24.773Z,6.50
2018-06-20T04:37:52.010Z,4.50
2018-06-20T04:40:19.231Z,7.40
2018-06-20T04:42:46.460Z,5.30
2018-06-20T04:45:13.673Z,9.70
2018-06-20T04:47:40.906Z,5.53
2018-06-20T04:50:08.120Z,5.10
2018-06-20T04:52:35.337Z,7.57
2018-06-20T04:55:02.593Z,7.70
2018-06-20T04:57:29.822Z,5.47
2018-06-20T04:59:57.040Z,15.07
2018-06-20T05:02:24.265Z,6.37
2018-06-20T05:04:51.493Z,11.17
2018-06-20T05:07:18.755Z,7.97
2018-06-20T05:09:45.981Z,6.33
2018-06-20T05:12:13.220Z,5.60
2018-06-20T05:14:40.439Z,5.30
2018-06-20T05:17:07.678Z,7.60
2018-06-20T05:19:34.906Z,5.87
2018-06-20T05:22:02.159Z,7.87
2018-06-20T05:24:29.406Z,7.43
2018-06-20T05:26:56.626Z,5.90
2018-06-20T05:29:23.845Z,11.00
2018-06-20T05:31:51.497Z,6.57
2018-06-20T05:34:18.732Z,5.17
2018-06-20T05:36:45.992Z,6.53
2018-06-20T05:39:13.239Z,93.37
2018-06-20T05:41:40.502Z,148.57
2018-06-20T05:44:08.029Z,102.70
2018-06-20T05:46:35.253Z,83.37
2018-06-20T05:49:02.657Z,68.17
2018-06-20T05:51:29.893Z,47.20
2018-06-20T05:53:57.130Z,19.77
2018-06-20T05:56:24.356Z,39.83
2018-06-20T05:58:51.581Z,19.30
2018-06-20T06:01:18.800Z,41.10
2018-06-20T06:03:46.117Z,104.93
2018-06-20T06:06:14.621Z,85.23
2018-06-20T06:08:42.309Z,129.47
2018-06-20T06:11:09.776Z,124.70
2018-06-20T06:13:37.459Z,119.00
2018-06-20T06:16:04.789Z,142.27
2018-06-20T06:18:32.188Z,81.77
2018-06-20T06:20:59.550Z,124.73
2018-06-20T06:23:26.786Z,218.13
2018-06-20T06:25:54.592Z,231.40
2018-06-20T06:28:21.834Z,251.93
2018-06-20T06:30:49.052Z,225.03
2018-06-20T06:33:16.304Z,254.60
2018-06-20T06:35:43.538Z,248.73
2018-06-20T06:38:10.911Z,236.93
2018-06-20T06:40:38.392Z,249.87
2018-06-20T06:43:05.753Z,248.47
2018-06-20T06:45:32.981Z,252.20
2018-06-20T06:48:00.484Z,260.07
2018-06-20T06:50:27.728Z,291.77
2018-06-20T06:52:54.961Z,352.70
2018-06-20T06:55:22.392Z,389.73
2018-06-20T06:57:49.635Z,362.73
2018-06-20T07:00:16.913Z,446.40
2018-06-20T07:02:44.175Z,434.40
2018-06-20T07:05:11.660Z,333.73
2018-06-20T07:07:38.906Z,333.97
2018-06-20T07:10:06.133Z,270.90
2018-06-20T07:12:33.354Z,286.37
2018-06-20T07:15:00.593Z,258.73
2018-06-20T07:17:27.880Z,204.27
2018-06-20T07:19:55.212Z,247.93
2018-06-20T07:22:22.449Z,225.65
2018-06-20T07:24:49.668Z,229.18
2018-06-20T07:27:16.906Z,196.95
2018-06-20T07:29:44.156Z,180.18
2018-06-20T07:32:11.408Z,181.25
2018-06-20T07:34:38.634Z,176.78
2018-06-20T07:37:05.864Z,219.47
2018-06-20T07:39:33.084Z,123.92
2018-06-20T07:42:00.307Z,112.20
2018-06-20T07:44:27.531Z,177.93
2018-06-20T07:46:54.832Z,196.43
2018-06-20T07:49:22.056Z,377.98
2018-06-20T07:51:49.309Z,463.30
2018-06-20T07:54:16.525Z,374.12
2018-06-20T07:56:43.900Z,308.93
2018-06-20T07:59:12.942Z,266.20
2018-06-20T08:01:57.662Z,345.57
2018-06-20T08:04:30.627Z,451.22
2018-06-20T08:07:04.125Z,426.75
2018-06-20T08:09:37.082Z,405.15
2018-06-20T08:12:10.158Z,265.95
2018-06-20T08:14:43.189Z,316.27
2018-06-20T08:17:16.221Z,300.25
2018-06-20T08:19:49.133Z,213.70
2018-06-20T08:22:18.206Z,123.60
2018-06-20T08:25:00.413Z,44.98
2018-06-20T08:27:28.393Z,171.80
2018-06-20T08:29:55.616Z,240.25
2018-06-20T08:32:22.857Z,55.25
2018-06-20T08:34:50.089Z,49.00
2018-06-20T08:37:17.327Z,141.80
2018-06-20T08:39:44.560Z,28.80
2018-06-20T08:42:11.792Z,27.67
2018-06-20T08:44:39.013Z,9.90
2018-06-20T08:47:06.416Z,39.45
2018-06-20T08:49:33.777Z,111.25
2018-06-20T08:52:01.018Z,55.15
2018-06-20T08:54:28.625Z,52.98
2018-06-20T08:56:55.854Z,66.77
2018-06-20T08:59:23.082Z,67.58
2018-06-20T09:01:50.370Z,115.88
2018-06-20T09:04:23.326Z,94.58
2018-06-20T09:06:56.233Z,100.58
2018-06-20T09:09:29.110Z,201.90
2018-06-20T09:12:02.045Z,425.68
2018-06-20T09:14:33.883Z,177.53
2018-06-20T09:17:06.800Z,224.80
2018-06-20T09:19:39.677Z,284.77
2018-06-20T09:22:06.962Z,353.05
2018-06-20T09:24:34.141Z,484.63
2018-06-20T09:27:01.357Z,306.47
2018-06-20T09:29:28.593Z,478.92
2018-06-20T09:31:55.824Z,540.90
2018-06-20T09:34:23.057Z,645.75
2018-06-20T09:36:50.273Z,271.70
2018-06-20T09:39:17.529Z,294.35
2018-06-20T09:41:44.765Z,387.52
2018-06-20T09:44:12.000Z,651.42
2018-06-20T09:46:39.237Z,528.48
2018-06-20T09:49:06.506Z,584.27
2018-06-20T09:51:33.741Z,695.50
2018-06-20T09:54:00.972Z,802.00
2018-06-20T09:56:28.197Z,795.12
2018-06-20T09:58:58.758Z,617.60
2018-06-20T10:01:31.767Z,611.85
2018-06-20T10:05:03.413Z,646.00
2018-06-20T10:07:36.326Z,651.82
2018-06-20T10:10:09.273Z,759.13
2018-06-20T10:12:42.289Z,758.35
2018-06-20T10:15:09.608Z,904.37
2018-06-20T10:17:36.832Z,866.47
2018-06-20T10:20:07.577Z,908.60
2018-06-20T10:22:34.884Z,895.15
2018-06-20T10:25:02.141Z,917.92
2018-06-20T10:27:29.376Z,909.47
2018-06-20T10:29:56.605Z,916.53
2018-06-20T10:32:23.832Z,930.42
2018-06-20T10:34:51.057Z,959.20
2018-06-20T10:37:18.295Z,937.10
2018-06-20T10:39:45.514Z,946.63
2018-06-20T10:42:12.732Z,950.47
2018-06-20T10:44:39.976Z,955.27
2018-06-20T10:47:13.002Z,924.90
2018-06-20T10:49:40.240Z,946.52
2018-06-20T10:52:07.481Z,939.50
2018-06-20T10:54:34.710Z,805.15
2018-06-20T10:57:07.793Z,817.55
2018-06-20T10:59:40.890Z,809.70
2018-06-20T11:02:13.933Z,864.10
2018-06-20T11:04:47.007Z,817.35
2018-06-20T11:07:20.015Z,821.12
2018-06-20T11:09:53.119Z,826.88
2018-06-20T11:12:26.202Z,767.53
2018-06-20T11:14:53.437Z,801.80
2018-06-20T11:17:20.677Z,775.53
2018-06-20T11:19:47.916Z,553.92
2018-06-20T11:22:15.137Z,419.07
2018-06-20T11:24:42.382Z,398.02
2018-06-20T11:27:09.596Z,729.85
2018-06-20T11:29:36.861Z,470.77
2018-06-20T11:32:04.115Z,319.45
2018-06-20T11:34:31.354Z,338.98
2018-06-20T11:36:58.597Z,187.85
2018-06-20T11:39:25.949Z,283.50
2018-06-20T11:41:53.174Z,150.38
2018-06-20T11:44:20.469Z,157.95
2018-06-20T11:46:53.405Z,316.52
2018-06-20T11:49:20.616Z,351.70
2018-06-20T11:51:47.885Z,357.98
2018-06-20T11:54:15.105Z,424.95
2018-06-20T11:56:42.340Z,370.90
2018-06-20T11:59:15.266Z,510.87
2018-06-20T12:01:48.219Z,561.23
2018-06-20T12:04:21.044Z,527.08
2018-06-20T12:06:53.942Z,589.25
2018-06-20T12:09:26.996Z,610.80
2018-06-20T12:12:02.492Z,579.75
2018-06-20T12:14:35.584Z,634.67
2018-06-20T12:17:02.385Z,640.20
2018-06-20T12:19:39.189Z,700.35
2018-06-20T12:22:12.093Z,773.70
2018-06-20T12:24:45.063Z,733.53
2018-06-20T12:27:17.910Z,748.33
2018-06-20T12:29:50.989Z,781.33
2018-06-20T12:32:24.069Z,732.05
2018-06-20T12:34:56.949Z,812.63
2018-06-20T12:37:30.102Z,797.60
2018-06-20T12:40:03.833Z,814.58
2018-06-20T12:43:36.709Z,824.35
2018-06-20T12:46:07.853Z,816.53
2018-06-20T12:48:35.121Z,817.73
2018-06-20T12:51:02.394Z,823.40
2018-06-20T12:53:29.634Z,804.80
2018-06-20T12:55:56.880Z,858.05
2018-06-20T12:58:24.134Z,837.00
2018-06-20T13:00:51.332Z,831.72
2018-06-20T13:03:18.559Z,849.35
2018-06-20T13:05:45.769Z,885.65
2018-06-20T13:08:13.001Z,860.92
2018-06-20T13:10:40.233Z,870.00
2018-06-20T13:13:07.465Z,868.62
2018-06-20T13:15:34.694Z,851.33
2018-06-20T13:18:01.928Z,873.60
2018-06-20T13:20:29.156Z,880.30
2018-06-20T13:22:56.394Z,841.85
2018-06-20T13:25:23.698Z,854.08
2018-06-20T13:27:50.970Z,858.92
2018-06-20T13:30:18.176Z,836.80
2018-06-20T13:32:51.228Z,874.87
2018-06-20T13:35:24.245Z,856.20
2018-06-20T13:37:57.447Z,884.80
2018-06-20T13:40:30.526Z,872.98
2018-06-20T13:43:03.588Z,855.48
2018-06-20T13:45:36.589Z,841.73
2018-06-20T13:48:09.541Z,824.85
2018-06-20T13:50:36.784Z,833.58
2018-06-20T13:53:04.044Z,832.00
2018-06-20T13:55:31.272Z,835.35
2018-06-20T13:57:58.534Z,830.70
2018-06-20T14:00:26.097Z,838.00
2018-06-20T14:02:53.326Z,829.87
2018-06-20T14:05:20.534Z,815.60
2018-06-20T14:07:47.760Z,843.67
2018-06-20T14:10:15.030Z,816.23
2018-06-20T14:12:42.249Z,865.23
2018-06-20T14:15:09.537Z,844.15
2018-06-20T14:17:36.789Z,887.03
2018-06-20T14:20:10.085Z,857.20
2018-06-20T14:22:37.309Z,883.05
2018-06-20T14:25:04.677Z,902.00
2018-06-20T14:27:32.249Z,911.75
2018-06-20T14:30:00.033Z,903.65
2018-06-20T14:32:33.078Z,898.23
2018-06-20T14:35:06.225Z,909.73
2018-06-20T14:37:39.257Z,932.47
2018-06-20T14:40:12.504Z,903.17
2018-06-20T14:42:45.369Z,907.08
2018-06-20T14:45:18.408Z,892.40
2018-06-20T14:47:45.667Z,907.13
2018-06-20T14:50:12.930Z,885.80
2018-06-20T14:52:40.148Z,878.48
2018-06-20T14:55:07.374Z,851.30
2018-06-20T14:57:34.594Z,881.42
2018-06-20T15:00:01.931Z,876.42
2018-06-20T15:02:29.154Z,856.95
2018-06-20T15:04:56.380Z,869.03
2018-06-20T15:07:23.601Z,865.00
2018-06-20T15:09:50.815Z,878.33
2018-06-20T15:12:18.025Z,878.22
2018-06-20T15:14:45.281Z,843.45
2018-06-20T15:17:18.345Z,867.98
2018-06-20T15:19:45.606Z,864.25
2018-06-20T15:22:12.828Z,840.23
2018-06-20T15:24:40.073Z,842.28
2018-06-20T15:27:13.137Z,800.85
2018-06-20T15:29:46.157Z,828.40
2018-06-20T15:32:19.140Z,851.98
2018-06-20T15:34:52.164Z,806.25
2018-06-20T15:37:25.183Z,825.45
2018-06-20T15:39:52.412Z,822.13
2018-06-20T15:42:19.666Z,792.07
2018-06-20T15:44:47.135Z,816.30
2018-06-20T15:47:16.128Z,780.67
2018-06-20T15:49:43.340Z,791.30
2018-06-20T15:52:10.582Z,765.43
2018-06-20T15:54:37.822Z,819.82
2018-06-20T15:57:05.081Z,819.10
2018-06-20T15:59:32.346Z,802.48
2018-06-20T16:01:59.628Z,775.80
2018-06-20T16:04:26.841Z,786.10
2018-06-20T16:06:54.106Z,813.00
2018-06-20T16:09:27.128Z,772.93
2018-06-20T16:11:54.361Z,783.97
2018-06-20T16:14:21.825Z,806.58
2018-06-20T16:16:49.061Z,822.50
2018-06-20T16:19:21.919Z,837.90
2018-06-20T16:21:55.046Z,831.98
2018-06-20T16:24:27.954Z,849.50
2018-06-20T16:27:58.780Z,845.92
2018-06-20T16:30:36.090Z,828.80
2018-06-20T16:33:03.733Z,863.90
2018-06-20T16:35:30.975Z,844.63
2018-06-20T16:37:58.395Z,870.33
2018-06-20T16:40:25.830Z,881.32
2018-06-20T16:42:53.065Z,856.02
2018-06-20T16:45:20.304Z,857.30
2018-06-20T16:47:47.537Z,889.02
2018-06-20T16:50:14.885Z,880.65
2018-06-20T16:52:42.130Z,869.33
2018-06-20T16:55:09.359Z,883.47
2018-06-20T16:57:36.580Z,868.37
2018-06-20T17:00:04.761Z,888.63
2018-06-20T17:02:33.003Z,866.95
2018-06-20T17:05:00.539Z,869.28
2018-06-20T17:07:27.773Z,874.50
2018-06-20T17:09:55.039Z,866.00
2018-06-20T17:12:28.127Z,863.55
2018-06-20T17:15:01.105Z,861.03
2018-06-20T17:17:41.052Z,885.77
2018-06-20T17:20:14.067Z,882.17
2018-06-20T17:22:47.060Z,853.40
2018-06-20T17:25:16.377Z,879.10
2018-06-20T17:27:43.905Z,853.67
2018-06-20T17:30:11.137Z,805.27
2018-06-20T17:32:38.369Z,833.33
2018-06-20T17:35:05.617Z,830.67
2018-06-20T17:37:32.964Z,762.73
2018-06-20T17:40:00.221Z,774.37
2018-06-20T17:42:27.701Z,760.30
2018-06-20T17:44:54.920Z,740.17
2018-06-20T17:47:22.161Z,727.63
2018-06-20T17:49:49.385Z,706.20
2018-06-20T17:52:16.642Z,732.67
2018-06-20T17:54:43.904Z,690.23
2018-06-20T17:57:11.138Z,688.30
2018-06-20T17:59:38.377Z,670.63
2018-06-20T18:02:06.329Z,699.70
2018-06-20T18:04:39.216Z,663.67
2018-06-20T18:07:12.298Z,661.70
2018-06-20T18:09:45.364Z,736.40
2018-06-20T18:12:18.508Z,664.17
2018-06-20T18:14:51.466Z,653.67
2018-06-20T18:17:18.714Z,651.23
2018-06-20T18:19:45.965Z,618.97
2018-06-20T18:22:13.206Z,615.60
2018-06-20T18:24:40.446Z,621.10
2018-06-20T18:27:07.693Z,613.47
2018-06-20T18:29:34.921Z,618.43
2018-06-20T18:32:02.203Z,612.20
2018-06-20T18:34:29.405Z,615.00
2018-06-20T18:36:56.659Z,612.47
2018-06-20T18:39:24.097Z,606.90
2018-06-20T18:41:51.402Z,609.70
2018-06-20T18:44:18.625Z,610.97
2018-06-20T18:46:45.865Z,608.13
2018-06-20T18:49:13.192Z,607.57
2018-06-20T18:51:40.413Z,604.57
2018-06-20T18:54:07.643Z,606.47
2018-06-20T18:56:34.878Z,601.03
2018-06-20T18:59:07.837Z,603.37
2018-06-20T19:01:40.822Z,595.87
2018-06-20T19:04:13.799Z,589.30
2018-06-20T19:06:47.033Z,594.70
2018-06-20T19:09:17.205Z,588.10
2018-06-20T19:11:44.921Z,584.97
2018-06-20T19:14:12.184Z,590.33
2018-06-20T19:16:39.430Z,582.10
2018-06-20T19:19:06.678Z,581.57
2018-06-20T19:21:34.033Z,583.63
2018-06-20T19:24:01.443Z,580.33
2018-06-20T19:26:28.695Z,576.87
2018-06-20T19:28:55.940Z,584.53
2018-06-20T19:31:23.189Z,584.70
2018-06-20T19:33:50.436Z,586.03
2018-06-20T19:36:17.685Z,580.93
2018-06-20T19:38:45.117Z,580.80
2018-06-20T19:41:12.349Z,578.80
2018-06-20T19:43:45.225Z,578.60
2018-06-20T19:46:12.887Z,580.30
2018-06-20T19:48:40.104Z,578.83
2018-06-20T19:51:07.427Z,583.67
2018-06-20T19:53:34.654Z,589.43
2018-06-20T19:56:01.890Z,582.00
2018-06-20T19:58:29.143Z,583.33
2018-06-20T20:00:56.487Z,585.17
2018-06-20T20:03:23.813Z,584.40
2018-06-20T20:05:51.296Z,585.07
2018-06-20T20:08:18.625Z,585.53
2018-06-20T20:10:45.874Z,580.30
2018-06-20T20:13:13.122Z,583.20
2018-06-20T20:15:40.428Z,582.47
2018-06-20T20:18:07.782Z,585.03
2018-06-20T20:20:35.127Z,586.47
2018-06-20T20:23:02.345Z,579.40
2018-06-20T20:25:29.595Z,576.77
2018-06-20T20:27:56.828Z,578.90
2018-06-20T20:30:24.043Z,582.67
2018-06-20T20:32:51.381Z,581.30
2018-06-20T20:35:18.610Z,580.60
2018-06-20T20:37:45.956Z,569.03
2018-06-20T20:40:13.189Z,564.80
2018-06-20T20:42:40.757Z,568.67
2018-06-20T20:45:07.985Z,565.17
2018-06-20T20:47:35.258Z,569.90
2018-06-20T20:50:02.505Z,570.47
2018-06-20T20:52:29.767Z,567.00
2018-06-20T20:54:56.995Z,572.40
2018-06-20T20:57:24.221Z,574.10
2018-06-20T20:59:51.445Z,572.77
2018-06-20T21:02:18.776Z,568.03
2018-06-20T21:04:46.114Z,573.23
2018-06-20T21:07:13.352Z,572.13
2018-06-20T21:09:40.604Z,570.57
2018-06-20T21:12:07.849Z,567.90
2018-06-20T21:14:35.098Z,569.90
2018-06-20T21:17:02.573Z,575.10
2018-06-20T21:19:29.801Z,571.00
2018-06-20T21:21:57.027Z,580.57
2018-06-20T21:24:24.320Z,572.70
2018-06-20T21:26:51.557Z,573.33
2018-06-20T21:29:18.820Z,571.63
2018-06-20T21:31:46.029Z,563.50
2018-06-20T21:34:13.252Z,568.33
2018-06-20T21:36:40.494Z,567.77
2018-06-20T21:39:09.184Z,568.73
2018-06-20T21:41:36.401Z,568.37
2018-06-20T21:44:03.625Z,499.90
2018-06-20T21:46:30.828Z,561.47
2018-06-20T21:48:58.063Z,576.80
2018-06-20T21:51:25.401Z,568.10
2018-06-20T21:53:52.608Z,569.13
2018-06-20T21:56:19.833Z,562.53
2018-06-20T21:58:47.058Z,569.03
2018-06-20T22:01:14.285Z,568.03
2018-06-20T22:03:41.509Z,566.10
2018-06-20T22:06:08.737Z,569.03
2018-06-20T22:08:35.969Z,563.67
2018-06-20T22:11:03.246Z,568.57
2018-06-20T22:13:30.437Z,549.57
2018-06-20T22:15:57.696Z,553.80
2018-06-20T22:18:24.917Z,566.47
2018-06-20T22:20:52.144Z,568.20
2018-06-20T22:23:19.385Z,567.93
2018-06-20T22:25:46.614Z,562.57
2018-06-20T22:28:13.824Z,568.03
2018-06-20T22:30:41.052Z,564.53
2018-06-20T22:33:08.273Z,571.87
2018-06-20T22:35:35.501Z,571.30
2018-06-20T22:38:02.715Z,568.50
2018-06-20T22:40:30.080Z,568.90
2018-06-20T22:42:57.305Z,575.20
2018-06-20T22:45:24.531Z,567.57
2018-06-20T22:47:51.748Z,566.90
2018-06-20T22:50:18.984Z,563.67
2018-06-20T22:52:46.292Z,558.20
2018-06-20T22:55:13.567Z,566.67
2018-06-20T22:57:40.789Z,562.23
2018-06-20T23:00:08.065Z,558.50
2018-06-20T23:02:35.294Z,555.37
2018-06-20T23:05:02.560Z,555.47
2018-06-20T23:07:29.805Z,561.97
2018-06-20T23:09:57.029Z,566.37
2018-06-20T23:12:24.245Z,560.80
2018-06-20T23:14:51.477Z,562.77
2018-06-20T23:17:18.697Z,552.63
2018-06-20T23:19:45.943Z,555.23
2018-06-20T23:22:13.154Z,559.00
2018-06-20T23:24:40.376Z,552.03
2018-06-20T23:27:07.593Z,560.23
2018-06-20T23:29:34.801Z,554.80
2018-06-20T23:32:02.023Z,554.07
2018-06-20T23:34:29.264Z,532.93
2018-06-20T23:36:56.484Z,553.23
2018-06-20T23:39:23.705Z,555.33
2018-06-20T23:41:50.932Z,540.03
2018-06-20T23:44:18.185Z,561.10
2018-06-20T23:46:45.419Z,562.53
2018-06-20T23:49:12.630Z,557.73
2018-06-20T23:51:39.853Z,556.23
2018-06-20T23:54:07.056Z,558.97
2018-06-20T23:56:34.304Z,551.33
2018-06-20T23:59:01.559Z,553.97
